createdAt,value
2018-02-07T00:00:22.663Z,61.53
2018-02-07T00:02:50.168Z,77.25
2018-02-07T00:05:18.017Z,78.70
2018-02-07T00:07:45.534Z,76.95
2018-02-07T00:10:13.066Z,68.57
2018-02-07T00:12:40.631Z,87.40
2018-02-07T00:15:08.154Z,81.65
2018-02-07T00:17:35.814Z,78.47
2018-02-07T00:20:03.362Z,73.95
2018-02-07T00:22:30.889Z,85.47
2018-02-07T00:24:59.230Z,82.00
2018-02-07T00:27:26.741Z,75.93
2018-02-07T00:29:54.301Z,81.65
2018-02-07T00:32:21.829Z,84.87
2018-02-07T00:34:49.342Z,88.97
2018-02-07T00:37:16.878Z,87.18
2018-02-07T00:39:44.423Z,75.18
2018-02-07T00:42:11.977Z,73.97
2018-02-07T00:44:39.490Z,86.03
2018-02-07T00:47:07.010Z,82.25
2018-02-07T00:49:34.557Z,90.05
2018-02-07T00:52:02.084Z,83.03
2018-02-07T00:54:29.738Z,83.65
2018-02-07T00:56:57.256Z,85.95
2018-02-07T00:59:24.822Z,69.35
2018-02-07T01:01:52.371Z,83.50
2018-02-07T01:04:19.899Z,75.87
2018-02-07T01:06:47.610Z,90.12
2018-02-07T01:09:15.150Z,80.47
2018-02-07T01:11:42.661Z,71.50
2018-02-07T01:14:10.211Z,90.22
2018-02-07T01:16:37.731Z,63.13
2018-02-07T01:19:05.285Z,90.30
2018-02-07T01:21:32.800Z,79.43
2018-02-07T01:24:00.321Z,76.95
2018-02-07T01:26:27.866Z,68.70
2018-02-07T01:28:55.400Z,73.72
2018-02-07T01:31:23.402Z,76.75
2018-02-07T01:33:50.913Z,79.50
2018-02-07T01:36:18.443Z,79.60
2018-02-07T01:38:45.990Z,74.07
2018-02-07T01:41:13.542Z,78.85
2018-02-07T01:43:41.424Z,94.95
2018-02-07T01:46:08.946Z,72.80
2018-02-07T01:48:36.464Z,90.97
2018-02-07T01:51:04.011Z,84.47
2018-02-07T01:53:31.545Z,73.28
2018-02-07T01:55:59.113Z,74.57
2018-02-07T01:58:26.668Z,74.97
2018-02-07T02:00:54.179Z,79.62
2018-02-07T02:03:21.725Z,66.72
2018-02-07T02:05:49.246Z,70.93
2018-02-07T02:08:16.996Z,78.87
2018-02-07T02:10:44.514Z,73.43
2018-02-07T02:13:12.030Z,80.07
2018-02-07T02:15:39.574Z,76.32
2018-02-07T02:18:07.086Z,73.87
2018-02-07T02:20:35.735Z,85.82
2018-02-07T02:23:03.257Z,72.82
2018-02-07T02:25:30.770Z,74.97
2018-02-07T02:27:58.317Z,74.78
2018-02-07T02:30:25.850Z,79.57
2018-02-07T02:32:53.512Z,77.07
2018-02-07T02:35:21.030Z,82.28
2018-02-07T02:37:48.546Z,83.20
2018-02-07T02:40:16.090Z,75.12
2018-02-07T02:42:43.601Z,66.12
2018-02-07T02:45:11.157Z,67.10
2018-02-07T02:47:38.684Z,74.03
2018-02-07T02:50:06.212Z,87.25
2018-02-07T02:52:33.763Z,75.53
2018-02-07T02:55:01.286Z,71.00
2018-02-07T02:57:29.334Z,92.30
2018-02-07T02:59:57.126Z,65.62
2018-02-07T03:02:24.757Z,83.37
2018-02-07T03:04:52.415Z,74.43
2018-02-07T03:07:19.937Z,68.20
2018-02-07T03:09:48.131Z,68.80
2018-02-07T03:12:15.654Z,73.72
2018-02-07T03:14:43.166Z,72.85
2018-02-07T03:17:10.713Z,63.78
2018-02-07T03:19:38.232Z,78.25
2018-02-07T03:22:06.030Z,75.95
2018-02-07T03:24:33.558Z,75.25
2018-02-07T03:27:01.078Z,78.55
2018-02-07T03:29:28.615Z,82.65
2018-02-07T03:31:56.133Z,79.68
2018-02-07T03:34:23.961Z,72.03
2018-02-07T03:36:51.488Z,64.03
2018-02-07T03:39:19.005Z,74.22
2018-02-07T03:41:46.545Z,69.47
2018-02-07T03:44:14.065Z,65.93
2018-02-07T03:46:41.931Z,70.82
2018-02-07T03:49:09.442Z,67.50
2018-02-07T03:51:36.957Z,73.70
2018-02-07T03:54:04.505Z,67.60
2018-02-07T03:56:32.025Z,71.00
2018-02-07T03:58:59.720Z,82.82
2018-02-07T04:01:27.252Z,85.40
2018-02-07T04:03:54.793Z,82.45
2018-02-07T04:06:22.333Z,77.47
2018-02-07T04:08:49.860Z,73.90
2018-02-07T04:11:17.596Z,65.62
2018-02-07T04:13:45.114Z,68.85
2018-02-07T04:16:12.642Z,71.20
2018-02-07T04:18:40.181Z,72.97
2018-02-07T04:21:07.709Z,64.70
2018-02-07T04:23:35.525Z,75.10
2018-02-07T04:26:03.051Z,66.07
2018-02-07T04:28:30.578Z,69.18
2018-02-07T04:30:58.116Z,63.58
2018-02-07T04:33:25.985Z,63.08
2018-02-07T04:35:53.930Z,59.63
2018-02-07T04:38:21.440Z,87.90
2018-02-07T04:40:49.714Z,65.28
2018-02-07T04:43:17.261Z,70.80
2018-02-07T04:45:44.773Z,81.25
2018-02-07T04:48:12.545Z,74.65
2018-02-07T04:50:40.063Z,85.07
2018-02-07T04:53:07.584Z,85.65
2018-02-07T04:55:35.126Z,70.53
2018-02-07T04:58:02.641Z,95.18
2018-02-07T05:00:30.555Z,115.70
2018-02-07T05:02:58.073Z,140.93
2018-02-07T05:05:25.593Z,132.95
2018-02-07T05:07:53.135Z,130.65
2018-02-07T05:10:20.669Z,88.00
2018-02-07T05:12:48.246Z,105.87
2018-02-07T05:15:15.761Z,102.78
2018-02-07T05:17:43.278Z,83.65
2018-02-07T05:20:10.825Z,81.87
2018-02-07T05:22:38.338Z,73.05
2018-02-07T05:25:06.038Z,87.15
2018-02-07T05:27:33.576Z,96.60
2018-02-07T05:30:01.095Z,100.28
2018-02-07T05:32:28.643Z,101.35
2018-02-07T05:34:56.162Z,73.22
2018-02-07T05:37:23.736Z,86.97
2018-02-07T05:39:51.258Z,77.43
2018-02-07T05:42:18.782Z,74.68
2018-02-07T05:44:46.326Z,94.80
2018-02-07T05:47:13.842Z,78.53
2018-02-07T05:49:41.525Z,74.55
2018-02-07T05:52:09.043Z,78.82
2018-02-07T05:54:36.561Z,75.22
2018-02-07T05:57:04.106Z,72.37
2018-02-07T05:59:31.626Z,82.70
2018-02-07T06:01:59.326Z,71.87
2018-02-07T06:04:26.845Z,68.80
2018-02-07T06:06:54.385Z,67.72
2018-02-07T06:09:21.937Z,73.55
2018-02-07T06:11:49.457Z,65.28
2018-02-07T06:14:17.218Z,68.12
2018-02-07T06:16:44.733Z,85.68
2018-02-07T06:19:12.250Z,70.43
2018-02-07T06:21:39.798Z,74.95
2018-02-07T06:24:07.326Z,79.35
2018-02-07T06:26:35.021Z,71.60
2018-02-07T06:29:02.549Z,75.37
2018-02-07T06:31:30.066Z,73.25
2018-02-07T06:33:57.613Z,75.15
2018-02-07T06:36:25.129Z,90.40
2018-02-07T06:38:52.725Z,78.00
2018-02-07T06:41:20.233Z,92.72
2018-02-07T06:43:47.759Z,97.18
2018-02-07T06:46:15.304Z,95.72
2018-02-07T06:48:42.817Z,120.55
2018-02-07T06:51:10.610Z,107.90
2018-02-07T06:53:38.127Z,83.60
2018-02-07T06:56:05.645Z,93.25
2018-02-07T06:58:33.199Z,100.07
2018-02-07T07:01:00.720Z,97.93
2018-02-07T07:03:28.289Z,93.12
2018-02-07T07:05:55.815Z,147.80
2018-02-07T07:08:23.337Z,145.85
2018-02-07T07:10:50.897Z,158.25
2018-02-07T07:13:18.427Z,113.72
2018-02-07T07:15:46.113Z,119.65
2018-02-07T07:18:13.637Z,148.68
2018-02-07T07:20:41.156Z,100.95
2018-02-07T07:23:08.713Z,114.20
2018-02-07T07:25:36.238Z,117.25
2018-02-07T07:28:04.223Z,114.95
2018-02-07T07:30:31.799Z,142.50
2018-02-07T07:32:59.321Z,165.00
2018-02-07T07:35:26.873Z,126.97
2018-02-07T07:37:54.405Z,113.35
2018-02-07T07:40:21.963Z,141.15
2018-02-07T07:42:49.494Z,137.25
2018-02-07T07:45:17.031Z,156.02
2018-02-07T07:47:44.638Z,276.70
2018-02-07T07:50:12.246Z,562.90
2018-02-07T07:52:39.825Z,239.20
2018-02-07T07:55:07.351Z,160.93
2018-02-07T07:57:34.874Z,165.70
2018-02-07T08:00:02.448Z,132.18
2018-02-07T08:02:29.969Z,148.35
2018-02-07T08:04:57.897Z,111.10
2018-02-07T08:07:25.532Z,126.12
2018-02-07T08:09:53.066Z,127.75
2018-02-07T08:12:20.626Z,106.07
2018-02-07T08:14:48.145Z,89.57
2018-02-07T08:17:15.900Z,91.45
2018-02-07T08:19:43.422Z,112.35
2018-02-07T08:22:10.948Z,101.20
2018-02-07T08:24:38.510Z,90.00
2018-02-07T08:27:06.035Z,92.62
2018-02-07T08:29:33.902Z,85.28
2018-02-07T08:32:01.418Z,105.63
2018-02-07T08:34:28.939Z,96.10
2018-02-07T08:36:56.481Z,96.72
2018-02-07T08:39:24.006Z,100.10
2018-02-07T08:41:51.805Z,105.22
2018-02-07T08:44:19.321Z,99.60
2018-02-07T08:46:47.346Z,108.22
2018-02-07T08:49:15.203Z,89.03
2018-02-07T08:51:42.722Z,91.78
2018-02-07T08:54:10.283Z,107.12
2018-02-07T08:56:37.806Z,101.53
2018-02-07T08:59:05.341Z,99.37
2018-02-07T09:01:32.890Z,129.85
2018-02-07T09:04:00.417Z,91.63
2018-02-07T09:06:28.137Z,91.35
2018-02-07T09:08:55.686Z,88.30
2018-02-07T09:11:23.218Z,95.93
2018-02-07T09:13:50.771Z,114.80
2018-02-07T09:16:18.299Z,111.22
2018-02-07T09:18:46.010Z,117.70
2018-02-07T09:21:13.529Z,100.45
2018-02-07T09:23:41.051Z,99.03
2018-02-07T09:26:08.597Z,101.65
2018-02-07T09:28:36.118Z,105.47
2018-02-07T09:31:04.013Z,117.80
2018-02-07T09:33:31.532Z,109.03
2018-02-07T09:35:59.055Z,95.62
2018-02-07T09:38:26.608Z,89.07
2018-02-07T09:40:54.130Z,95.43
2018-02-07T09:43:21.937Z,95.80
2018-02-07T09:45:49.450Z,101.20
2018-02-07T09:48:16.965Z,98.93
2018-02-07T09:50:44.518Z,88.82
2018-02-07T09:53:12.048Z,94.37
2018-02-07T09:55:39.804Z,84.25
2018-02-07T09:58:07.326Z,98.75
2018-02-07T10:00:34.933Z,95.12
2018-02-07T10:03:02.495Z,123.07
2018-02-07T10:05:30.019Z,83.80
2018-02-07T10:07:57.826Z,96.60
2018-02-07T10:10:25.353Z,102.82
2018-02-07T10:12:52.866Z,86.00
2018-02-07T10:15:20.417Z,91.18
2018-02-07T10:17:47.933Z,90.15
2018-02-07T10:20:15.603Z,83.00
2018-02-07T10:22:43.150Z,89.35
2018-02-07T10:25:10.665Z,91.93
2018-02-07T10:27:38.229Z,86.90
2018-02-07T10:30:05.846Z,94.07
2018-02-07T10:32:33.708Z,92.25
2018-02-07T10:35:01.238Z,74.37
2018-02-07T10:37:28.760Z,79.97
2018-02-07T10:39:56.307Z,91.53
2018-02-07T10:42:23.825Z,101.10
2018-02-07T10:44:51.502Z,90.35
2018-02-07T10:47:19.024Z,96.05
2018-02-07T10:49:46.541Z,91.93
2018-02-07T10:52:14.110Z,101.55
2018-02-07T10:54:41.629Z,90.35
2018-02-07T10:57:09.409Z,91.65
2018-02-07T10:59:37.030Z,89.32
2018-02-07T11:02:04.561Z,98.78
2018-02-07T11:04:32.109Z,100.60
2018-02-07T11:06:59.626Z,93.18
2018-02-07T11:09:27.341Z,97.90
2018-02-07T11:11:54.920Z,103.85
2018-02-07T11:14:22.415Z,90.68
2018-02-07T11:16:49.972Z,102.62
2018-02-07T11:19:17.502Z,108.10
2018-02-07T11:21:45.193Z,90.70
2018-02-07T11:24:12.714Z,93.90
2018-02-07T11:26:40.237Z,93.62
2018-02-07T11:29:07.801Z,102.55
2018-02-07T11:31:35.317Z,97.45
2018-02-07T11:34:03.092Z,107.00
2018-02-07T11:36:30.617Z,94.65
2018-02-07T11:38:58.137Z,100.28
2018-02-07T11:41:25.691Z,102.47
2018-02-07T11:43:53.202Z,86.63
2018-02-07T11:46:20.877Z,98.18
2018-02-07T11:48:48.420Z,93.85
2018-02-07T11:51:15.941Z,91.68
2018-02-07T11:53:43.489Z,108.03
2018-02-07T11:56:11.001Z,95.30
2018-02-07T11:58:38.794Z,93.65
2018-02-07T12:01:06.316Z,93.30
2018-02-07T12:03:33.850Z,90.47
2018-02-07T12:06:01.410Z,89.05
2018-02-07T12:08:29.023Z,95.35
2018-02-07T12:10:56.709Z,83.45
2018-02-07T12:13:24.260Z,84.18
2018-02-07T12:15:51.847Z,103.25
2018-02-07T12:18:19.412Z,89.75
2018-02-07T12:20:47.258Z,87.30
2018-02-07T12:23:14.994Z,87.25
2018-02-07T12:25:42.513Z,95.07
2018-02-07T12:28:10.037Z,99.87
2018-02-07T12:30:37.987Z,91.47
2018-02-07T12:33:05.501Z,79.97
2018-02-07T12:35:33.060Z,82.28
2018-02-07T12:38:01.086Z,90.22
2018-02-07T12:40:28.606Z,86.80
2018-02-07T12:42:56.254Z,92.28
2018-02-07T12:45:23.778Z,109.85
2018-02-07T12:47:51.717Z,101.43
2018-02-07T12:50:19.246Z,97.37
2018-02-07T12:52:46.777Z,89.70
2018-02-07T12:55:14.325Z,92.68
2018-02-07T12:57:41.853Z,100.68
2018-02-07T13:00:09.817Z,101.30
2018-02-07T13:02:37.342Z,101.40
2018-02-07T13:05:04.946Z,97.15
2018-02-07T13:07:32.506Z,85.47
2018-02-07T13:10:00.025Z,83.32
2018-02-07T13:12:27.622Z,97.00
2018-02-07T13:14:55.164Z,83.43
2018-02-07T13:17:22.686Z,82.07
2018-02-07T13:19:50.250Z,74.37
2018-02-07T13:22:17.766Z,85.30
2018-02-07T13:24:45.401Z,83.20
2018-02-07T13:27:12.927Z,88.55
2018-02-07T13:29:40.473Z,83.82
2018-02-07T13:32:08.027Z,86.78
2018-02-07T13:34:35.542Z,92.00
2018-02-07T13:37:03.305Z,86.00
2018-02-07T13:39:30.830Z,93.72
2018-02-07T13:41:58.445Z,79.82
2018-02-07T13:44:25.985Z,84.05
2018-02-07T13:46:53.721Z,74.53
2018-02-07T13:49:21.605Z,86.07
2018-02-07T13:51:49.178Z,83.60
2018-02-07T13:54:16.854Z,76.65
2018-02-07T13:56:44.596Z,76.95
2018-02-07T13:59:12.257Z,77.25
2018-02-07T14:01:40.145Z,79.43
2018-02-07T14:04:07.794Z,81.85
2018-02-07T14:06:35.308Z,81.28
2018-02-07T14:09:03.028Z,85.45
2018-02-07T14:11:30.596Z,87.68
2018-02-07T14:13:58.126Z,84.30
2018-02-07T14:16:25.905Z,89.70
2018-02-07T14:18:53.440Z,84.82
2018-02-07T14:21:20.958Z,85.12
2018-02-07T14:23:49.202Z,71.35
2018-02-07T14:26:16.743Z,78.03
2018-02-07T14:28:44.382Z,78.57
2018-02-07T14:31:12.110Z,77.57
2018-02-07T14:33:39.629Z,80.62
2018-02-07T14:36:07.165Z,81.45
2018-02-07T14:38:34.814Z,71.40
2018-02-07T14:41:02.428Z,75.70
2018-02-07T14:43:29.974Z,76.53
2018-02-07T14:45:57.941Z,70.22
2018-02-07T14:48:25.457Z,75.20
2018-02-07T14:50:52.978Z,76.87
2018-02-07T14:53:20.829Z,78.70
2018-02-07T14:55:48.341Z,74.62
2018-02-07T14:58:15.892Z,70.35
2018-02-07T15:00:43.922Z,73.95
2018-02-07T15:03:11.493Z,76.45
2018-02-07T15:05:39.089Z,76.70
2018-02-07T15:08:06.674Z,78.95
2018-02-07T15:10:34.201Z,73.45
2018-02-07T15:13:01.754Z,77.25
2018-02-07T15:15:29.456Z,79.82
2018-02-07T15:17:57.030Z,80.15
2018-02-07T15:20:24.703Z,76.68
2018-02-07T15:22:52.422Z,69.40
2018-02-07T15:25:20.229Z,74.97
2018-02-07T15:27:48.094Z,81.05
2018-02-07T15:30:16.065Z,66.75
2018-02-07T15:32:43.829Z,70.57
2018-02-07T15:35:11.577Z,69.62
2018-02-07T15:37:39.261Z,78.20
2018-02-07T15:40:06.916Z,75.87
2018-02-07T15:42:34.666Z,77.03
2018-02-07T15:45:02.481Z,79.32
2018-02-07T15:47:30.374Z,79.55
2018-02-07T15:49:58.278Z,72.10
2018-02-07T15:52:26.145Z,64.15
2018-02-07T15:54:53.673Z,100.85
2018-02-07T15:57:21.289Z,84.13
2018-02-07T15:59:49.436Z,81.32
2018-02-07T16:02:17.201Z,78.07
2018-02-07T16:04:44.771Z,87.43
2018-02-07T16:07:13.705Z,91.63
2018-02-07T16:09:41.619Z,92.82
2018-02-07T16:12:09.792Z,81.80
2018-02-07T16:14:37.560Z,80.10
2018-02-07T16:17:05.849Z,92.30
2018-02-07T16:19:33.740Z,72.12
2018-02-07T16:22:01.668Z,85.60
2018-02-07T16:24:30.629Z,85.03
2018-02-07T16:26:58.285Z,75.47
2018-02-07T16:29:26.073Z,83.78
2018-02-07T16:31:53.850Z,70.72
2018-02-07T16:34:21.717Z,79.25
2018-02-07T16:36:49.380Z,67.80
2018-02-07T16:39:17.222Z,72.75
2018-02-07T16:41:45.112Z,88.50
2018-02-07T16:44:13.185Z,80.45
2018-02-07T16:46:41.050Z,83.72
2018-02-07T16:49:09.555Z,74.65
2018-02-07T16:51:37.397Z,76.47
2018-02-07T16:54:05.262Z,89.65
2018-02-07T16:56:33.232Z,86.60
2018-02-07T16:59:00.995Z,84.78
2018-02-07T17:01:29.073Z,77.95
2018-02-07T17:03:56.727Z,72.03
2018-02-07T17:06:24.334Z,73.68
2018-02-07T17:08:52.258Z,71.32
2018-02-07T17:11:20.123Z,70.80
2018-02-07T17:13:48.056Z,77.53
2018-02-07T17:16:15.714Z,73.30
2018-02-07T17:18:43.563Z,83.25
2018-02-07T17:21:11.281Z,75.15
2018-02-07T17:23:39.148Z,70.57
2018-02-07T17:26:07.105Z,69.68
2018-02-07T17:28:35.155Z,70.18
2018-02-07T17:31:03.464Z,80.78
2018-02-07T17:33:31.433Z,85.25
2018-02-07T17:35:59.306Z,86.78
2018-02-07T17:38:27.267Z,81.57
2018-02-07T17:40:55.237Z,78.70
2018-02-07T17:43:22.999Z,70.80
2018-02-07T17:45:50.970Z,79.12
2018-02-07T17:48:18.835Z,79.18
2018-02-07T17:50:48.238Z,83.47
2018-02-07T17:53:17.130Z,86.22
2018-02-07T17:55:44.995Z,78.68
2018-02-07T17:58:12.963Z,84.95
2018-02-07T18:00:40.832Z,75.47
2018-02-07T18:03:08.788Z,89.18
2018-02-07T18:05:36.572Z,79.15
2018-02-07T18:08:04.549Z,77.30
2018-02-07T18:10:33.124Z,72.50
2018-02-07T18:13:01.514Z,85.18
2018-02-07T18:15:29.568Z,75.15
2018-02-07T18:17:57.457Z,91.95
2018-02-07T18:20:25.297Z,85.62
2018-02-07T18:22:53.267Z,82.80
2018-02-07T18:25:21.111Z,80.68
2018-02-07T18:27:49.819Z,100.32
2018-02-07T18:30:18.575Z,89.70
2018-02-07T18:32:46.472Z,95.05
2018-02-07T18:35:14.544Z,91.05
2018-02-07T18:37:42.411Z,77.78
2018-02-07T18:40:10.411Z,89.53
2018-02-07T18:42:38.350Z,82.40
2018-02-07T18:45:06.117Z,83.87
2018-02-07T18:47:33.872Z,88.45
2018-02-07T18:50:01.743Z,93.97
2018-02-07T18:52:29.769Z,89.90
2018-02-07T18:54:59.319Z,81.37
2018-02-07T18:57:27.583Z,98.32
2018-02-07T18:59:56.245Z,84.65
2018-02-07T19:02:24.250Z,92.57
2018-02-07T19:04:53.446Z,102.72
2018-02-07T19:07:21.415Z,86.47
2018-02-07T19:09:49.282Z,96.90
2018-02-07T19:12:17.250Z,92.65
2018-02-07T19:14:45.731Z,84.72
2018-02-07T19:17:13.786Z,101.80
2018-02-07T19:19:42.181Z,81.35
2018-02-07T19:22:09.957Z,95.85
2018-02-07T19:24:37.826Z,91.20
2018-02-07T19:27:06.296Z,86.35
2018-02-07T19:29:34.466Z,92.10
2018-02-07T19:32:02.333Z,99.15
2018-02-07T19:34:30.198Z,83.45
2018-02-07T19:36:58.394Z,94.47
2018-02-07T19:39:26.341Z,104.35
2018-02-07T19:41:54.597Z,89.25
2018-02-07T19:44:22.480Z,84.05
2018-02-07T19:46:50.351Z,83.40
2018-02-07T19:49:18.423Z,95.57
2018-02-07T19:51:47.211Z,81.43
2018-02-07T19:54:15.384Z,99.20
2018-02-07T19:56:43.250Z,87.93
2018-02-07T19:59:11.116Z,82.57
2018-02-07T20:01:38.998Z,83.65
2018-02-07T20:04:07.001Z,94.35
2018-02-07T20:06:35.336Z,76.40
2018-02-07T20:09:03.825Z,87.18
2018-02-07T20:11:32.091Z,84.40
2018-02-07T20:14:00.469Z,85.55
2018-02-07T20:16:28.436Z,90.68
2018-02-07T20:18:56.608Z,85.85
2018-02-07T20:21:24.967Z,85.35
2018-02-07T20:23:53.364Z,92.78
2018-02-07T20:26:21.333Z,85.12
2018-02-07T20:28:49.303Z,83.32
2018-02-07T20:31:18.094Z,88.68
2018-02-07T20:33:46.162Z,110.57
2018-02-07T20:36:13.991Z,87.07
2018-02-07T20:38:41.998Z,85.47
2018-02-07T20:41:09.969Z,94.60
2018-02-07T20:43:38.038Z,86.32
2018-02-07T20:46:05.984Z,108.28
2018-02-07T20:48:34.592Z,81.75
2018-02-07T20:51:02.560Z,87.03
2018-02-07T20:53:30.528Z,85.07
2018-02-07T20:55:58.702Z,91.18
2018-02-07T20:58:26.671Z,90.45
2018-02-07T21:00:55.461Z,76.15
2018-02-07T21:03:23.475Z,86.75
2018-02-07T21:05:51.396Z,84.57
2018-02-07T21:08:19.569Z,87.07
2018-02-07T21:10:47.474Z,88.43
2018-02-07T21:13:15.405Z,78.25
2018-02-07T21:15:44.706Z,89.78
2018-02-07T21:18:12.574Z,91.68
2018-02-07T21:20:40.816Z,76.70
2018-02-07T21:23:08.713Z,84.75
2018-02-07T21:25:36.582Z,86.35
2018-02-07T21:28:05.269Z,97.30
2018-02-07T21:30:33.681Z,93.70
2018-02-07T21:33:01.818Z,92.25
2018-02-07T21:35:30.002Z,89.07
2018-02-07T21:37:58.589Z,94.70
2018-02-07T21:40:28.085Z,100.20
2018-02-07T21:42:56.052Z,85.55
2018-02-07T21:45:24.942Z,87.95
2018-02-07T21:47:55.878Z,83.40
2018-02-07T21:50:24.362Z,81.05
2018-02-07T21:52:53.352Z,98.90
2018-02-07T21:55:21.633Z,91.30
2018-02-07T21:57:49.807Z,84.07
2018-02-07T22:00:17.857Z,81.82
2018-02-07T22:02:46.067Z,85.12
2018-02-07T22:05:14.015Z,78.35
2018-02-07T22:07:41.882Z,80.40
2018-02-07T22:10:09.851Z,94.32
2018-02-07T22:12:37.717Z,76.50
2018-02-07T22:15:06.628Z,85.22
2018-02-07T22:17:34.594Z,89.28
2018-02-07T22:20:02.567Z,91.35
2018-02-07T22:22:30.412Z,90.22
2018-02-07T22:24:58.278Z,97.97
2018-02-07T22:27:26.353Z,80.60
2018-02-07T22:29:54.114Z,87.82
2018-02-07T22:32:21.981Z,73.45
2018-02-07T22:34:49.783Z,78.37
2018-02-07T22:37:17.509Z,87.75
2018-02-07T22:39:45.367Z,88.85
2018-02-07T22:42:12.985Z,91.78
2018-02-07T22:44:40.689Z,86.57
2018-02-07T22:47:08.375Z,82.20
2018-02-07T22:49:35.946Z,94.68
2018-02-07T22:52:03.755Z,86.40
2018-02-07T22:54:31.441Z,88.97
2018-02-07T22:56:59.111Z,100.38
2018-02-07T22:59:26.673Z,94.72
2018-02-07T23:01:54.203Z,85.40
2018-02-07T23:04:21.966Z,82.72
2018-02-07T23:06:49.486Z,88.47
2018-02-07T23:09:17.041Z,76.28
2018-02-07T23:11:44.581Z,84.95
2018-02-07T23:14:12.097Z,87.12
2018-02-07T23:16:39.772Z,91.63
2018-02-07T23:19:07.281Z,79.03
2018-02-07T23:21:34.799Z,80.07
2018-02-07T23:24:02.386Z,81.60
2018-02-07T23:26:30.126Z,88.80
2018-02-07T23:28:57.873Z,93.07
2018-02-07T23:31:25.388Z,97.95
2018-02-07T23:33:52.901Z,95.55
2018-02-07T23:36:20.503Z,103.43
2018-02-07T23:38:48.029Z,94.55
2018-02-07T23:41:15.624Z,106.35
2018-02-07T23:43:43.147Z,104.65
2018-02-07T23:46:10.678Z,94.18
2018-02-07T23:48:38.229Z,99.47
2018-02-07T23:51:05.749Z,82.90
2018-02-07T23:53:33.370Z,97.78
2018-02-07T23:56:00.894Z,109.32
2018-02-07T23:58:28.409Z,83.12
